Time;durP1;ratioP1;P1;durP2;ratioP2;P2;SDS_P1;SDS_P2;PMS_P1;PMS_P2;Temp;Humidity;BMP_temperature;BMP_pressure;BME280_temperature;BME280_humidity;BME280_pressure;Samples;Min_cycle;Max_cycle;Signal;HPM_P1;HPM_P2
2023/05/22 05:51:06;;;;;;;15.50;13.10;;;;;;;;;;10508965;28;20499;-86
2023/05/22 05:56:08;;;;;;;13.55;12.15;;;;;;;;;;10500701;28;20057;-86
2023/05/22 06:01:10;;;;;;;10.52;8.80;;;;;;;;;;10498717;22;20054;-82
2023/05/22 06:06:11;;;;;;;15.48;13.88;;;;;;;;;;10437290;28;20025;-82
2023/05/22 06:11:12;;;;;;;15.13;13.52;;;;;;;;;;10435880;28;20045;-82
2023/05/22 06:16:13;;;;;;;11.02;10.00;;;;;;;;;;10420717;28;20529;-83
2023/05/22 06:21:14;;;;;;;8.90;8.00;;;;;;;;;;10421684;28;20049;-82
2023/05/22 06:26:16;;;;;;;9.05;8.15;;;;;;;;;;10420498;28;20053;-82
2023/05/22 06:31:17;;;;;;;10.57;9.57;;;;;;;;;;10420569;28;20022;-83
2023/05/22 06:36:18;;;;;;;15.20;11.88;;;;;;;;;;10422105;28;20395;-83
2023/05/22 06:41:20;;;;;;;13.40;12.00;;;;;;;;;;10421659;28;20036;-83
2023/05/22 06:46:21;;;;;;;12.18;10.95;;;;;;;;;;10425054;28;20148;-82
2023/05/22 06:51:23;;;;;;;12.63;10.98;;;;;;;;;;10424932;28;20091;-82
2023/05/22 06:56:24;;;;;;;12.63;11.38;;;;;;;;;;10422979;28;20100;-83
2023/05/22 07:01:25;;;;;;;15.65;14.05;;;;;;;;;;10404935;28;20034;-84
2023/05/22 07:06:27;;;;;;;11.55;10.40;;;;;;;;;;10401401;28;20109;-80
2023/05/22 07:11:28;;;;;;;14.63;10.55;;;;;;;;;;10415174;28;20025;-82
2023/05/22 07:16:30;;;;;;;10.82;9.75;;;;;;;;;;10391720;28;20029;-82
2023/05/22 07:21:51;;;;;;;14.00;12.57;;;;;;;;;;10393171;28;20471;-83
2023/05/22 07:27:04;;;;;;;12.35;11.15;;;;;;;;;;10391080;28;20030;-82
2023/05/22 07:32:06;;;;;;;11.60;10.50;;;;;;;;;;10388919;28;20048;-82
2023/05/22 07:37:09;;;;;;;10.20;9.20;;;;;;;;;;10390207;28;20037;-82
2023/05/22 07:42:12;;;;;;;14.85;13.07;;;;;;;;;;10388386;28;20488;-82
2023/05/22 07:47:13;;;;;;;15.70;13.98;;;;;;;;;;10403119;28;20029;-81
2023/05/22 07:52:14;;;;;;;15.73;14.10;;;;;;;;;;10410317;28;20026;-81
2023/05/22 07:57:15;;;;;;;17.05;15.43;;;;;;;;;;10396681;28;20129;-83
2023/05/22 08:02:19;;;;;;;16.60;14.90;;;;;;;;;;10393248;28;20044;-83
2023/05/22 08:07:20;;;;;;;18.55;16.65;;;;;;;;;;10392294;28;20089;-84
2023/05/22 08:12:21;;;;;;;17.45;15.65;;;;;;;;;;10393802;28;20064;-82
2023/05/22 08:17:22;;;;;;;33.65;30.13;;;;;;;;;;10396843;28;20049;-84
2023/05/22 08:22:23;;;;;;;20.83;18.63;;;;;;;;;;10391234;28;20116;-83
2023/05/22 08:27:24;;;;;;;22.98;19.60;;;;;;;;;;10393323;28;20036;-85
2023/05/22 08:32:25;;;;;;;20.83;18.75;;;;;;;;;;10393191;28;20439;-83
2023/05/22 08:37:26;;;;;;;20.80;18.02;;;;;;;;;;10391992;28;20076;-82
2023/05/22 08:42:27;;;;;;;15.38;13.75;;;;;;;;;;10392989;28;20385;-83
2023/05/22 08:47:31;;;;;;;17.45;15.68;;;;;;;;;;10392618;28;20032;-83
2023/05/22 08:52:51;;;;;;;20.45;18.30;;;;;;;;;;10391457;28;20041;-83
2023/05/22 08:57:52;;;;;;;19.85;17.73;;;;;;;;;;10400118;28;20377;-80
2023/05/22 09:02:54;;;;;;;16.50;15.00;;;;;;;;;;10411562;28;20147;-81
2023/05/22 09:07:56;;;;;;;17.40;15.43;;;;;;;;;;10401667;28;20026;-83
2023/05/22 09:13:06;;;;;;;17.23;15.48;;;;;;;;;;10389819;28;20118;-82
2023/05/22 09:18:07;;;;;;;16.90;15.20;;;;;;;;;;10390697;28;20365;-82
2023/05/22 09:23:13;;;;;;;18.20;16.30;;;;;;;;;;10393774;28;20037;-83
2023/05/22 09:28:14;;;;;;;19.48;17.48;;;;;;;;;;10391473;28;20022;-82
2023/05/22 09:33:15;;;;;;;19.85;17.95;;;;;;;;;;10389322;28;20033;-83
2023/05/22 09:38:16;;;;;;;19.20;17.30;;;;;;;;;;10386762;28;20030;-83
2023/05/22 09:43:18;;;;;;;17.55;15.70;;;;;;;;;;10387427;28;20400;-83
2023/05/22 09:48:19;;;;;;;18.67;16.73;;;;;;;;;;10390748;28;20033;-82
2023/05/22 09:53:24;;;;;;;20.48;18.48;;;;;;;;;;10388486;28;20562;-82
2023/05/22 09:58:30;;;;;;;18.77;16.83;;;;;;;;;;10389445;28;20022;-81
2023/05/22 10:03:33;;;;;;;23.17;20.77;;;;;;;;;;10388372;28;20034;-82
2023/05/22 10:08:47;;;;;;;17.50;15.73;;;;;;;;;;10389329;28;20117;-82
2023/05/22 10:13:49;;;;;;;17.30;15.60;;;;;;;;;;10393826;28;20022;-84
2023/05/22 10:18:51;;;;;;;16.77;15.25;;;;;;;;;;10389661;28;20025;-82
2023/05/22 10:23:53;;;;;;;18.25;16.40;;;;;;;;;;10387608;28;20026;-84
2023/05/22 10:29:04;;;;;;;16.05;14.45;;;;;;;;;;10390276;28;20069;-81
2023/05/22 10:34:07;;;;;;;15.95;13.38;;;;;;;;;;10394799;28;20044;-83
2023/05/22 10:39:33;;;;;;;16.15;14.55;;;;;;;;;;10401560;28;20057;-83
2023/05/22 10:44:34;;;;;;;17.02;15.30;;;;;;;;;;10410448;28;20025;-82
2023/05/22 10:49:35;;;;;;;14.30;12.90;;;;;;;;;;10400082;28;20117;-84
2023/05/22 10:54:43;;;;;;;17.85;16.08;;;;;;;;;;10401502;28;20128;-83
2023/05/22 10:59:47;;;;;;;15.18;13.68;;;;;;;;;;10399301;28;20026;-83
2023/05/22 11:04:48;;;;;;;14.70;13.20;;;;;;;;;;10401760;28;20030;-83
2023/05/22 11:09:59;;;;;;;17.50;15.27;;;;;;;;;;10400268;28;20056;-83
2023/05/22 11:15:08;;;;;;;17.58;15.88;;;;;;;;;;10401519;28;20022;-83
2023/05/22 11:20:14;;;;;;;17.38;15.57;;;;;;;;;;10400259;28;20484;-85
2023/05/22 11:25:17;;;;;;;16.23;14.60;;;;;;;;;;10401775;28;20037;-85
2023/05/22 11:30:18;;;;;;;17.38;15.77;;;;;;;;;;10400560;28;20064;-85
2023/05/22 11:35:20;;;;;;;20.13;18.02;;;;;;;;;;10401540;28;20026;-85
2023/05/22 11:40:28;;;;;;;21.38;19.27;;;;;;;;;;10402504;28;20030;-85
2023/05/22 11:45:29;;;;;;;22.40;20.00;;;;;;;;;;10418996;28;20018;-83
2023/05/22 11:50:30;;;;;;;17.70;16.00;;;;;;;;;;10401028;28;20029;-82
2023/05/22 11:55:33;;;;;;;19.60;17.55;;;;;;;;;;10396970;28;20366;-83
2023/05/22 12:00:34;;;;;;;17.83;15.95;;;;;;;;;;10396428;28;20046;-82
2023/05/22 12:05:39;;;;;;;18.50;16.50;;;;;;;;;;10397185;28;20025;-84
2023/05/22 12:10:47;;;;;;;19.55;17.55;;;;;;;;;;10397189;28;20026;-83
2023/05/22 12:15:48;;;;;;;20.98;18.60;;;;;;;;;;10397239;28;20084;-82
2023/05/22 12:20:54;;;;;;;20.45;18.17;;;;;;;;;;10395467;28;20050;-83
2023/05/22 12:25:59;;;;;;;22.25;20.15;;;;;;;;;;10394288;28;20054;-82
2023/05/22 12:31:00;;;;;;;20.85;18.88;;;;;;;;;;10395007;28;20025;-82
2023/05/22 12:36:06;;;;;;;25.55;22.88;;;;;;;;;;10392942;28;20061;-82
2023/05/22 12:41:07;;;;;;;22.13;20.02;;;;;;;;;;10396433;28;20037;-82
2023/05/22 12:46:08;;;;;;;25.95;23.25;;;;;;;;;;10398227;28;20034;-82
2023/05/22 12:51:10;;;;;;;26.52;23.98;;;;;;;;;;10395580;28;20026;-82
2023/05/22 12:56:11;;;;;;;22.73;20.52;;;;;;;;;;10394177;28;20037;-82
2023/05/22 13:01:12;;;;;;;23.00;20.90;;;;;;;;;;10393969;28;20345;-82
2023/05/22 13:06:13;;;;;;;19.90;17.92;;;;;;;;;;10392028;28;20060;-82
2023/05/22 13:11:14;;;;;;;20.70;18.70;;;;;;;;;;10391568;28;20476;-82
2023/05/22 13:16:15;;;;;;;20.70;18.60;;;;;;;;;;10391932;28;20054;-81
2023/05/22 13:21:16;;;;;;;23.35;20.95;;;;;;;;;;10389820;28;20045;-81
2023/05/22 13:26:17;;;;;;;24.25;21.83;;;;;;;;;;10392057;28;20121;-82
2023/05/22 13:31:18;;;;;;;22.92;20.73;;;;;;;;;;10391912;28;20053;-81
2023/05/22 13:36:20;;;;;;;22.15;20.00;;;;;;;;;;10391162;28;20109;-81
2023/05/22 13:41:21;;;;;;;21.55;19.55;;;;;;;;;;10393505;28;20029;-82
2023/05/22 13:46:22;;;;;;;18.42;16.73;;;;;;;;;;10407723;28;20361;-81
2023/05/22 13:51:23;;;;;;;20.63;18.70;;;;;;;;;;10405614;28;20044;-81
2023/05/22 13:56:24;;;;;;;22.77;17.75;;;;;;;;;;10409670;28;20038;-82
2023/05/22 14:01:26;;;;;;;19.98;17.98;;;;;;;;;;10389407;28;20126;-81
2023/05/22 14:06:27;;;;;;;15.35;13.90;;;;;;;;;;10389391;28;20026;-82
2023/05/22 14:11:28;;;;;;;17.50;15.90;;;;;;;;;;10396195;28;20026;-82
2023/05/22 14:16:30;;;;;;;18.33;16.55;;;;;;;;;;10396812;28;20022;-82
2023/05/22 14:21:31;;;;;;;15.60;14.10;;;;;;;;;;10396011;28;20045;-82
2023/05/22 14:26:32;;;;;;;18.20;16.30;;;;;;;;;;10396870;28;20509;-83
2023/05/22 14:31:44;;;;;;;15.75;13.23;;;;;;;;;;10397853;28;20022;-83
2023/05/22 14:36:45;;;;;;;14.60;13.18;;;;;;;;;;10398424;28;20022;-82
2023/05/22 14:41:46;;;;;;;17.58;14.80;;;;;;;;;;10396937;28;20030;-81
2023/05/22 14:46:49;;;;;;;18.95;17.05;;;;;;;;;;10399276;28;20440;-82
2023/05/22 14:51:51;;;;;;;16.20;14.60;;;;;;;;;;10397084;28;20460;-81
2023/05/22 14:56:52;;;;;;;17.50;15.80;;;;;;;;;;10394814;28;20081;-81
2023/05/22 15:01:53;;;;;;;14.60;13.10;;;;;;;;;;10394028;28;20041;-81
2023/05/22 15:06:55;;;;;;;14.23;12.85;;;;;;;;;;10392847;28;20030;-81
2023/05/22 15:11:56;;;;;;;14.60;13.10;;;;;;;;;;10393258;28;20018;-81
2023/05/22 15:17:00;;;;;;;14.55;13.07;;;;;;;;;;10394851;28;20080;-81
2023/05/22 15:22:01;;;;;;;14.93;13.38;;;;;;;;;;10394645;28;20026;-82
2023/05/22 15:27:02;;;;;;;16.13;14.63;;;;;;;;;;10393449;28;20022;-83
2023/05/22 15:32:03;;;;;;;14.82;13.30;;;;;;;;;;10395061;28;20101;-82
2023/05/22 15:37:04;;;;;;;16.83;15.20;;;;;;;;;;10395294;28;20511;-83
2023/05/22 15:42:05;;;;;;;16.15;14.55;;;;;;;;;;10395471;28;20046;-82
2023/05/22 15:47:06;;;;;;;15.10;13.77;;;;;;;;;;10396928;28;20053;-81
2023/05/22 15:52:08;;;;;;;13.75;12.45;;;;;;;;;;10394119;28;20025;-80
2023/05/22 15:57:09;;;;;;;15.23;13.82;;;;;;;;;;10396389;28;20028;-79
2023/05/22 16:02:10;;;;;;;13.48;11.93;;;;;;;;;;10420554;28;20029;-81
2023/05/22 16:07:11;;;;;;;14.07;12.13;;;;;;;;;;10411835;28;20480;-83
2023/05/22 16:12:12;;;;;;;13.70;12.40;;;;;;;;;;10389817;28;20476;-82
2023/05/22 16:17:13;;;;;;;13.38;11.98;;;;;;;;;;10389171;28;20093;-80
2023/05/22 16:22:14;;;;;;;13.13;11.93;;;;;;;;;;10388250;28;20484;-82
2023/05/22 16:27:15;;;;;;;14.93;13.43;;;;;;;;;;10388803;28;20060;-82
2023/05/22 16:32:16;;;;;;;17.92;15.00;;;;;;;;;;10385159;28;20477;-81
2023/05/22 16:37:17;;;;;;;26.10;16.65;;;;;;;;;;10385121;28;20065;-80
2023/05/22 16:42:18;;;;;;;16.02;13.32;;;;;;;;;;10384983;28;20436;-82
2023/05/22 16:47:20;;;;;;;13.93;12.48;;;;;;;;;;10385983;28;20076;-82
2023/05/22 16:52:24;;;;;;;14.23;11.77;;;;;;;;;;10387627;28;20089;-81
2023/05/22 16:57:26;;;;;;;12.00;10.80;;;;;;;;;;10390142;28;20025;-80
2023/05/22 17:02:27;;;;;;;11.52;10.30;;;;;;;;;;10388205;28;20033;-82
2023/05/22 17:07:30;;;;;;;10.93;9.73;;;;;;;;;;10391040;28;20022;-81
2023/05/22 17:12:31;;;;;;;10.70;9.60;;;;;;;;;;10392569;28;20025;-81
2023/05/22 17:17:32;;;;;;;11.75;9.98;;;;;;;;;;10385485;28;20030;-82
2023/05/22 17:22:34;;;;;;;9.77;8.48;;;;;;;;;;10383308;28;20034;-81
2023/05/22 17:27:35;;;;;;;9.50;8.52;;;;;;;;;;10383010;28;20037;-81
2023/05/22 17:32:37;;;;;;;10.43;8.73;;;;;;;;;;10385391;28;20029;-82
2023/05/22 17:37:38;;;;;;;9.20;8.38;;;;;;;;;;10383762;28;20129;-81
2023/05/22 17:42:39;;;;;;;10.32;9.23;;;;;;;;;;10382780;28;20030;-81
2023/05/22 17:47:40;;;;;;;9.98;9.07;;;;;;;;;;10383072;28;20048;-82
2023/05/22 17:52:41;;;;;;;10.68;9.57;;;;;;;;;;10391176;28;20029;-81
2023/05/22 17:57:42;;;;;;;11.85;10.65;;;;;;;;;;10385119;28;20037;-81
2023/05/22 18:02:43;;;;;;;12.55;11.30;;;;;;;;;;10384132;28;20030;-82
2023/05/22 18:07:44;;;;;;;12.50;10.40;;;;;;;;;;10382517;28;20125;-82
2023/05/22 18:12:45;;;;;;;12.13;10.98;;;;;;;;;;10383756;28;20056;-82
2023/05/22 18:17:46;;;;;;;11.55;9.77;;;;;;;;;;10384523;28;20058;-82
2023/05/22 18:22:47;;;;;;;11.13;9.52;;;;;;;;;;10384247;28;20124;-82
2023/05/22 18:27:48;;;;;;;12.90;11.60;;;;;;;;;;10381671;28;20503;-82
2023/05/22 18:32:49;;;;;;;12.20;11.10;;;;;;;;;;10383670;28;20102;-82
2023/05/22 18:37:50;;;;;;;10.25;8.93;;;;;;;;;;10381635;28;20435;-81
2023/05/22 18:42:51;;;;;;;8.95;8.05;;;;;;;;;;10381603;28;20053;-81
2023/05/22 18:47:52;;;;;;;11.48;10.38;;;;;;;;;;10381382;28;20076;-81
2023/05/22 18:52:53;;;;;;;9.68;8.68;;;;;;;;;;10381129;28;20044;-82
2023/05/22 18:57:54;;;;;;;9.80;8.90;;;;;;;;;;10385975;28;20125;-82
2023/05/22 19:02:55;;;;;;;10.00;9.00;;;;;;;;;;10390445;28;20518;-81
2023/05/22 19:07:56;;;;;;;10.13;9.23;;;;;;;;;;10388489;28;20029;-82
2023/05/22 19:12:57;;;;;;;10.55;9.55;;;;;;;;;;10389301;28;20076;-81
